Aeroporto :







RITROVATECI SU...

 
LOGIN :

Iscrizione | Disclaimer

   EN    FR    IT 

 









Sommario :    VFR   VFR Marginale   IFR   IFR Intensivo   IFR Molto Intensivo
Visibilità : 
Base nubi : 
>= 8 km
>= 3000ft
5 / 8 km
1000 / 3000 ft
1500m / 5 km
500 / 1000 ft
800 / 1500m
200 / 500 ft
< 800m
< 200 ft
Simboli :   Temporali  Nebbia  Neve Forte  Precipitazioni Forti  Vento > 20 kt






- Altitudine del aeroporto : 792 ft
- Codice IATA : YSC


CYSC - Sherbrooke

ULTIMO METAR :
  • 120551Z AUTO 30008KT 1SM -SN VV008 M07/M08 A2991 RMK PRESFR SLP144

METARs OBSOLETI :
  • 120523Z AUTO 30008KT 1SM -SN VV006 M07/M08 A2994 RMK PRESFR SLP154
  • 120500Z AUTO 30007KT 3/4SM -SN VV006 M07/M08 A2996 RMK SLP163
  • 120456Z AUTO 30008KT 3/4SM -SN OVC007 M07/M08 A2997 RMK PRESFR SLP164
  • 120445Z AUTO 29009KT 1SM -SN VV008 M07/M08 A2998 RMK SLP168
  • 120425Z AUTO 28009G15KT 3/4SM -SN VV008 M07/M08 A2999 RMK SLP171
  • 120400Z AUTO 29008KT 1 1/4SM -SN OVC010 M07/M08 A3000 RMK PRESFR SLP175
  • 120357Z AUTO 28008KT 1SM -SN VV010 M07/M08 A3001 RMK SLP177
  • 120339Z AUTO 29007KT 1SM -SN FEW004 OVC008 M07/M08 A3002 RMK SLP183
  • 120317Z AUTO 28008KT 3/4SM -SN VV006 M07/M08 A3004 RMK SLP189
  • 120300Z AUTO 29008KT 1SM -SN VV006 M07/M08 A3005 RMK SLP193

Previsioni scadute.



MetMap, La meteo Aeronautica in un colpo d'occhio ! - Copyright ORBIFLY Dicembre 2007 - Disclaimer

ORBIFLY MET'MAP TEAM :

Programmazione e sviluppo : Alexandra Zaïnal
Concezione e sviluppo : Baudouin d'Aumeries
Co-Programmazione e sviluppo : Marc-Olivier Méhu
Supporto tecnico e logistico : Manuel Goepfert
Aiuto per la traduzione : Arnaldo La Scala

Contatto : metmap@orbifly.com




FONTI E CREDITI :

   NOAA